This is the latest recevied weather packets stored in our database for station/object LU5DTF-1. If no packets are shown the sender has not sent any weather packets the latest 10 day(s).
| Time | Temp. | Humidity | Pressure | Rain* | Wind** | Luminosity | Snow |
|---|---|---|---|---|---|---|---|
| 1777957502 | 15.56° C | 68% | 1009.9 hPa | 0 mm | - | - | - |
| 1777957203 | 15.56° C | 67% | 1010 hPa | 0 mm | - | - | - |
| 1777956902 | 15.56° C | 67% | 1009.9 hPa | 0 mm | - | - | - |
| 1777956603 | 15.56° C | 67% | 1009.6 hPa | 0 mm | - | - | - |
| 1777956302 | 15° C | 66% | 1009.7 hPa | 0 mm | - | - | - |
| 1777956002 | 15° C | 65% | 1010.1 hPa | 0 mm | - | - | - |
| 1777955703 | 15° C | 64% | 1010.2 hPa | 0 mm | - | - | - |
| 1777955403 | 15° C | 64% | 1010.3 hPa | 0 mm | - | - | - |
| 1777955102 | 15° C | 64% | 1010.5 hPa | 0 mm | - | - | - |
| 1777954802 | 15° C | 64% | 1010.4 hPa | 0 mm | - | - | - |
| 1777954502 | 15° C | 65% | 1010.2 hPa | 0 mm | - | - | - |
| 1777954202 | 15° C | 66% | 1010.5 hPa | 0 mm | - | - | - |
| 1777953902 | 15° C | 66% | 1010.5 hPa | 0 mm | - | - | - |
| 1777943702 | 15.56° C | 73% | 1009.7 hPa | 0 mm | - | - | - |
| 1777943403 | 15.56° C | 72% | 1009.7 hPa | 0 mm | - | - | - |
| 1777943103 | 15.56° C | 72% | 1009.7 hPa | 0 mm | - | - | - |
| 1777942203 | 15.56° C | 71% | 1009.7 hPa | 0 mm | - | - | - |
| 1777939508 | 16.11° C | 71% | 1009.5 hPa | 0 mm | - | - | - |
| 1777924803 | 21.11° C | 48% | 1007.5 hPa | 0 mm | - | - | - |
| 1777919702 | 21.11° C | 52% | 1007.5 hPa | 0 mm | - | - | - |
| 1777916102 | 19.44° C | 58% | 1007.7 hPa | 0 mm | - | - | - |
| 1777909202 | 16.67° C | 62% | 1008.6 hPa | 0 mm | - | - | - |
| 1777908902 | 16.67° C | 62% | 1008.4 hPa | 0 mm | - | - | - |
| 1777905604 | 15° C | 63% | 1008.7 hPa | 0 mm | - | - | - |
| 1777905303 | 15° C | 63% | 1008.8 hPa | 0 mm | - | - | - |
* Rain latest hour (hover to see other rain measurements)
** Current wind speed in m/s (hover to see current wind gust speed)